sensor_id;sensor_type;location;lat;lon;timestamp;pressure;altitude;pressure_sealevel;temperature;humidity
71974;BME280;59840;52.122;5.404;2024-03-08T00:00:34;102083.84;;;3.21;100.00
71974;BME280;59840;52.122;5.404;2024-03-08T00:03:01;102073.59;;;3.19;100.00
71974;BME280;59840;52.122;5.404;2024-03-08T00:05:29;102071.16;;;3.18;100.00
71974;BME280;59840;52.122;5.404;2024-03-08T00:07:56;102067.25;;;3.14;100.00
71974;BME280;59840;52.122;5.404;2024-03-08T00:10:23;102076.03;;;3.13;100.00
71974;BME280;59840;52.122;5.404;2024-03-08T00:12:53;102070.81;;;3.13;100.00
71974;BME280;59840;52.122;5.404;2024-03-08T00:15:21;102077.22;;;3.10;100.00
71974;BME280;59840;52.122;5.404;2024-03-08T00:17:49;102075.56;;;3.09;100.00
71974;BME280;59840;52.122;5.404;2024-03-08T00:20:17;102070.69;;;3.06;100.00
71974;BME280;59840;52.122;5.404;2024-03-08T00:22:46;102075.09;;;3.06;100.00
71974;BME280;59840;52.122;5.404;2024-03-08T00:25:14;102069.22;;;3.03;100.00
71974;BME280;59840;52.122;5.404;2024-03-08T00:27:41;102068.41;;;3.03;100.00
71974;BME280;59840;52.122;5.404;2024-03-08T00:30:08;102066.78;;;3.02;100.00
71974;BME280;59840;52.122;5.404;2024-03-08T00:32:35;102067.09;;;2.99;100.00
71974;BME280;59840;52.122;5.404;2024-03-08T00:35:04;102066.44;;;2.97;100.00
71974;BME280;59840;52.122;5.404;2024-03-08T00:37:34;102056.34;;;2.94;100.00
71974;BME280;59840;52.122;5.404;2024-03-08T00:40:03;102058.31;;;2.92;100.00
71974;BME280;59840;52.122;5.404;2024-03-08T00:42:31;102058.63;;;2.89;100.00
71974;BME280;59840;52.122;5.404;2024-03-08T00:44:57;102055.38;;;2.87;100.00
71974;BME280;59840;52.122;5.404;2024-03-08T00:47:25;102054.06;;;2.83;100.00
71974;BME280;59840;52.122;5.404;2024-03-08T00:49:51;102062.84;;;2.82;100.00
71974;BME280;59840;52.122;5.404;2024-03-08T00:52:19;102045.13;;;2.77;100.00
71974;BME280;59840;52.122;5.404;2024-03-08T00:54:46;102044.31;;;2.77;100.00
71974;BME280;59840;52.122;5.404;2024-03-08T00:57:12;102043.66;;;2.75;100.00
71974;BME280;59840;52.122;5.404;2024-03-08T00:59:39;102037.16;;;2.71;100.00
71974;BME280;59840;52.122;5.404;2024-03-08T01:02:06;102028.50;;;2.70;100.00
71974;BME280;59840;52.122;5.404;2024-03-08T01:04:33;102027.69;;;2.69;100.00
71974;BME280;59840;52.122;5.404;2024-03-08T01:07:00;102025.25;;;2.68;100.00
71974;BME280;59840;52.122;5.404;2024-03-08T01:09:27;102016.78;;;2.66;100.00
71974;BME280;59840;52.122;5.404;2024-03-08T01:11:55;102013.53;;;2.64;100.00
71974;BME280;59840;52.122;5.404;2024-03-08T01:14:23;102007.66;;;2.62;100.00
71974;BME280;59840;52.122;5.404;2024-03-08T01:16:50;102011.41;;;2.59;100.00
71974;BME280;59840;52.122;5.404;2024-03-08T01:19:17;102006.34;;;2.58;100.00
71974;BME280;59840;52.122;5.404;2024-03-08T01:21:44;102005.69;;;2.56;100.00
71974;BME280;59840;52.122;5.404;2024-03-08T01:24:10;101997.38;;;2.52;100.00
71974;BME280;59840;52.122;5.404;2024-03-08T01:26:37;101997.56;;;2.51;100.00
71974;BME280;59840;52.122;5.404;2024-03-08T01:29:05;101995.09;;;2.49;100.00
71974;BME280;59840;52.122;5.404;2024-03-08T01:31:32;101998.84;;;2.47;100.00
71974;BME280;59840;52.122;5.404;2024-03-08T01:33:59;102001.28;;;2.48;100.00
71974;BME280;59840;52.122;5.404;2024-03-08T01:36:26;101992.19;;;2.44;100.00
71974;BME280;59840;52.122;5.404;2024-03-08T01:38:52;101988.94;;;2.42;100.00
71974;BME280;59840;52.122;5.404;2024-03-08T01:41:20;101985.69;;;2.40;100.00
71974;BME280;59840;52.122;5.404;2024-03-08T01:43:46;101980.47;;;2.40;100.00
71974;BME280;59840;52.122;5.404;2024-03-08T01:46:19;101974.47;;;2.40;100.00
71974;BME280;59840;52.122;5.404;2024-03-08T01:48:49;101970.38;;;2.37;100.00
71974;BME280;59840;52.122;5.404;2024-03-08T01:51:18;101969.88;;;2.33;100.00
71974;BME280;59840;52.122;5.404;2024-03-08T01:53:46;101965.81;;;2.31;100.00
71974;BME280;59840;52.122;5.404;2024-03-08T01:56:13;101969.41;;;2.30;100.00
71974;BME280;59840;52.122;5.404;2024-03-08T01:58:41;101964.66;;;2.25;100.00
71974;BME280;59840;52.122;5.404;2024-03-08T02:01:11;101958.81;;;2.23;100.00
71974;BME280;59840;52.122;5.404;2024-03-08T02:03:38;101961.56;;;2.22;100.00
71974;BME280;59840;52.122;5.404;2024-03-08T02:06:05;101963.53;;;2.20;100.00
71974;BME280;59840;52.122;5.404;2024-03-08T02:08:36;101958.63;;;2.17;100.00
71974;BME280;59840;52.122;5.404;2024-03-08T02:11:04;101951.81;;;2.16;100.00
71974;BME280;59840;52.122;5.404;2024-03-08T02:13:30;101953.59;;;2.15;100.00
71974;BME280;59840;52.122;5.404;2024-03-08T02:15:59;101961.41;;;2.15;100.00
71974;BME280;59840;52.122;5.404;2024-03-08T02:18:28;101952.94;;;2.13;100.00
71974;BME280;59840;52.122;5.404;2024-03-08T02:20:56;101949.69;;;2.11;100.00
71974;BME280;59840;52.122;5.404;2024-03-08T02:23:23;101948.19;;;2.09;100.00
71974;BME280;59840;52.122;5.404;2024-03-08T02:25:54;101948.41;;;2.07;100.00
71974;BME280;59840;52.122;5.404;2024-03-08T02:28:23;101934.72;;;2.05;100.00
71974;BME280;59840;52.122;5.404;2024-03-08T02:30:52;101938.63;;;2.01;100.00
71974;BME280;59840;52.122;5.404;2024-03-08T02:33:26;101926.09;;;1.96;100.00
71974;BME280;59840;52.122;5.404;2024-03-08T02:35:54;101931.28;;;1.96;100.00
71974;BME280;59840;52.122;5.404;2024-03-08T02:38:23;101932.59;;;1.92;100.00
71974;BME280;59840;52.122;5.404;2024-03-08T02:40:52;101925.75;;;1.91;100.00
71974;BME280;59840;52.122;5.404;2024-03-08T02:43:20;101922.66;;;1.88;100.00
71974;BME280;59840;52.122;5.404;2024-03-08T02:45:51;101921.84;;;1.87;100.00
71974;BME280;59840;52.122;5.404;2024-03-08T02:48:21;101915.31;;;1.83;100.00
71974;BME280;59840;52.122;5.404;2024-03-08T02:50:48;101907.66;;;1.82;100.00
71974;BME280;59840;52.122;5.404;2024-03-08T02:53:18;101913.69;;;1.82;100.00
71974;BME280;59840;52.122;5.404;2024-03-08T02:55:45;101909.63;;;1.80;100.00
71974;BME280;59840;52.122;5.404;2024-03-08T02:58:13;101897.09;;;1.75;100.00
71974;BME280;59840;52.122;5.404;2024-03-08T03:00:41;101902.44;;;1.74;100.00
71974;BME280;59840;52.122;5.404;2024-03-08T03:03:08;101900.84;;;1.73;100.00
71974;BME280;59840;52.122;5.404;2024-03-08T03:05:35;101897.44;;;1.72;100.00
71974;BME280;59840;52.122;5.404;2024-03-08T03:08:02;101897.44;;;1.72;100.00
71974;BME280;59840;52.122;5.404;2024-03-08T03:10:36;101891.56;;;1.70;100.00
71974;BME280;59840;52.122;5.404;2024-03-08T03:13:03;101891.56;;;1.70;100.00
71974;BME280;59840;52.122;5.404;2024-03-08T03:15:31;101888.31;;;1.68;100.00
71974;BME280;59840;52.122;5.404;2024-03-08T03:17:58;101887.66;;;1.66;100.00
71974;BME280;59840;52.122;5.404;2024-03-08T03:20:25;101883.75;;;1.62;100.00
71974;BME280;59840;52.122;5.404;2024-03-08T03:22:59;101878.72;;;1.60;100.00
71974;BME280;59840;52.122;5.404;2024-03-08T03:25:28;101877.88;;;1.60;100.00
71974;BME280;59840;52.122;5.404;2024-03-08T03:28:02;101875.59;;;1.57;100.00
71974;BME280;59840;52.122;5.404;2024-03-08T03:30:31;101871.38;;;1.56;100.00
71974;BME280;59840;52.122;5.404;2024-03-08T03:33:00;101867.97;;;1.55;100.00
71974;BME280;59840;52.122;5.404;2024-03-08T03:35:28;101873.31;;;1.54;100.00
71974;BME280;59840;52.122;5.404;2024-03-08T03:37:56;101869.75;;;1.55;100.00
71974;BME280;59840;52.122;5.404;2024-03-08T03:40:34;101862.41;;;1.50;100.00
71974;BME280;59840;52.122;5.404;2024-03-08T03:43:01;101873.63;;;1.51;100.00
71974;BME280;59840;52.122;5.404;2024-03-08T03:45:29;101866.00;;;1.49;100.00
71974;BME280;59840;52.122;5.404;2024-03-08T03:48:04;101862.56;;;1.49;100.00
71974;BME280;59840;52.122;5.404;2024-03-08T03:50:32;101858.66;;;1.45;100.00
71974;BME280;59840;52.122;5.404;2024-03-08T03:53:02;101857.19;;;1.42;100.00
71974;BME280;59840;52.122;5.404;2024-03-08T03:55:29;101864.19;;;1.42;100.00
71974;BME280;59840;52.122;5.404;2024-03-08T03:57:56;101864.19;;;1.42;100.00
71974;BME280;59840;52.122;5.404;2024-03-08T04:00:25;101852.16;;;1.41;100.00
71974;BME280;59840;52.122;5.404;2024-03-08T04:02:53;101853.94;;;1.40;100.00
71974;BME280;59840;52.122;5.404;2024-03-08T04:05:21;101855.72;;;1.40;100.00
71974;BME280;59840;52.122;5.404;2024-03-08T04:07:48;101852.31;;;1.39;100.00
71974;BME280;59840;52.122;5.404;2024-03-08T04:10:15;101853.31;;;1.38;100.00
71974;BME280;59840;52.122;5.404;2024-03-08T04:12:41;101849.25;;;1.36;100.00
71974;BME280;59840;52.122;5.404;2024-03-08T04:15:09;101845.66;;;1.37;100.00
71974;BME280;59840;52.122;5.404;2024-03-08T04:17:37;101844.03;;;1.36;100.00
71974;BME280;59840;52.122;5.404;2024-03-08T04:20:05;101842.72;;;1.31;100.00
71974;BME280;59840;52.122;5.404;2024-03-08T04:22:37;101834.94;;;1.31;100.00
71974;BME280;59840;52.122;5.404;2024-03-08T04:25:05;101840.94;;;1.32;100.00
71974;BME280;59840;52.122;5.404;2024-03-08T04:27:33;101840.13;;;1.31;100.00
71974;BME280;59840;52.122;5.404;2024-03-08T04:30:00;101833.28;;;1.30;100.00
71974;BME280;59840;52.122;5.404;2024-03-08T04:32:27;101834.28;;;1.29;100.00
71974;BME280;59840;52.122;5.404;2024-03-08T04:34:56;101830.19;;;1.27;100.00
71974;BME280;59840;52.122;5.404;2024-03-08T04:37:24;101837.03;;;1.28;100.00
71974;BME280;59840;52.122;5.404;2024-03-08T04:39:51;101831.00;;;1.27;100.00
71974;BME280;59840;52.122;5.404;2024-03-08T04:42:18;101830.19;;;1.27;100.00
71974;BME280;59840;52.122;5.404;2024-03-08T04:44:45;101818.97;;;1.26;100.00
71974;BME280;59840;52.122;5.404;2024-03-08T04:47:12;101829.38;;;1.26;100.00
71974;BME280;59840;52.122;5.404;2024-03-08T04:49:38;101826.13;;;1.24;100.00
71974;BME280;59840;52.122;5.404;2024-03-08T04:52:05;101831.97;;;1.26;100.00
71974;BME280;59840;52.122;5.404;2024-03-08T04:54:33;101823.69;;;1.23;100.00
71974;BME280;59840;52.122;5.404;2024-03-08T04:57:01;101820.28;;;1.22;100.00
71974;BME280;59840;52.122;5.404;2024-03-08T04:59:32;101819.31;;;1.23;100.00
71974;BME280;59840;52.122;5.404;2024-03-08T05:01:59;101818.66;;;1.21;100.00
71974;BME280;59840;52.122;5.404;2024-03-08T05:04:26;101811.97;;;1.19;100.00
71974;BME280;59840;52.122;5.404;2024-03-08T05:06:52;101809.38;;;1.19;100.00
71974;BME280;59840;52.122;5.404;2024-03-08T05:09:20;101821.41;;;1.20;100.00
71974;BME280;59840;52.122;5.404;2024-03-08T05:11:47;101818.00;;;1.19;100.00
71974;BME280;59840;52.122;5.404;2024-03-08T05:14:15;101819.94;;;1.17;100.00
71974;BME280;59840;52.122;5.404;2024-03-08T05:16:47;101813.41;;;1.13;100.00
71974;BME280;59840;52.122;5.404;2024-03-08T05:19:17;101811.78;;;1.12;100.00
71974;BME280;59840;52.122;5.404;2024-03-08T05:21:48;101810.00;;;1.13;100.00
71974;BME280;59840;52.122;5.404;2024-03-08T05:24:16;101807.56;;;1.11;100.00
71974;BME280;59840;52.122;5.404;2024-03-08T05:26:45;101811.13;;;1.10;100.00
71974;BME280;59840;52.122;5.404;2024-03-08T05:29:12;101801.69;;;1.09;100.00
71974;BME280;59840;52.122;5.404;2024-03-08T05:31:48;101798.28;;;1.09;100.00
71974;BME280;59840;52.122;5.404;2024-03-08T05:34:16;101799.25;;;1.08;100.00
71974;BME280;59840;52.122;5.404;2024-03-08T05:36:43;101803.00;;;1.05;100.00
71974;BME280;59840;52.122;5.404;2024-03-08T05:39:12;101803.97;;;1.04;100.00
71974;BME280;59840;52.122;5.404;2024-03-08T05:41:39;101798.75;;;1.04;100.00
71974;BME280;59840;52.122;5.404;2024-03-08T05:44:07;101800.72;;;1.02;100.00
71974;BME280;59840;52.122;5.404;2024-03-08T05:46:34;101792.28;;;1.00;100.00
71974;BME280;59840;52.122;5.404;2024-03-08T05:49:05;101798.44;;;0.99;100.00
71974;BME280;59840;52.122;5.404;2024-03-08T05:51:33;101790.50;;;1.00;100.00
71974;BME280;59840;52.122;5.404;2024-03-08T05:54:04;101786.28;;;0.99;100.00
71974;BME280;59840;52.122;5.404;2024-03-08T05:56:33;101794.88;;;1.00;100.00
71974;BME280;59840;52.122;5.404;2024-03-08T05:59:00;101794.22;;;0.98;100.00
71974;BME280;59840;52.122;5.404;2024-03-08T06:01:27;101783.66;;;0.99;100.00
71974;BME280;59840;52.122;5.404;2024-03-08T06:03:54;101776.03;;;0.98;100.00
71974;BME280;59840;52.122;5.404;2024-03-08T06:06:24;101776.69;;;1.00;100.00
71974;BME280;59840;52.122;5.404;2024-03-08T06:08:51;101766.28;;;1.00;100.00
71974;BME280;59840;52.122;5.404;2024-03-08T06:11:19;101775.72;;;1.01;100.00
71974;BME280;59840;52.122;5.404;2024-03-08T06:13:47;101775.88;;;0.99;100.00
71974;BME280;59840;52.122;5.404;2024-03-08T06:16:14;101776.84;;;0.98;100.00
71974;BME280;59840;52.122;5.404;2024-03-08T06:18:41;101776.03;;;0.98;100.00
71974;BME280;59840;52.122;5.404;2024-03-08T06:21:08;101774.91;;;1.00;100.00
71974;BME280;59840;52.122;5.404;2024-03-08T06:23:39;101772.47;;;1.07;100.00
71974;BME280;59840;52.122;5.404;2024-03-08T06:26:06;101777.03;;;1.13;100.00
71974;BME280;59840;52.122;5.404;2024-03-08T06:28:32;101772.47;;;1.15;100.00
71974;BME280;59840;52.122;5.404;2024-03-08T06:30:59;101778.81;;;1.13;100.00
71974;BME280;59840;52.122;5.404;2024-03-08T06:33:26;101772.63;;;1.14;100.00
71974;BME280;59840;52.122;5.404;2024-03-08T06:35:54;101774.75;;;1.18;100.00
71974;BME280;59840;52.122;5.404;2024-03-08T06:38:24;101769.75;;;1.25;100.00
71974;BME280;59840;52.122;5.404;2024-03-08T06:40:51;101764.06;;;1.46;100.00
71974;BME280;59840;52.122;5.404;2024-03-08T06:43:18;101768.63;;;1.76;100.00
71974;BME280;59840;52.122;5.404;2024-03-08T06:45:45;101761.09;;;2.14;100.00
71974;BME280;59840;52.122;5.404;2024-03-08T06:48:18;101756.94;;;2.44;100.00
71974;BME280;59840;52.122;5.404;2024-03-08T06:50:46;101759.59;;;2.75;99.96
71974;BME280;59840;52.122;5.404;2024-03-08T06:53:13;101748.53;;;3.03;98.32
71974;BME280;59840;52.122;5.404;2024-03-08T06:55:40;101761.56;;;3.26;97.24
71974;BME280;59840;52.122;5.404;2024-03-08T06:58:07;101756.34;;;3.49;95.71
71974;BME280;59840;52.122;5.404;2024-03-08T07:00:34;101747.47;;;3.58;93.63
71974;BME280;59840;52.122;5.404;2024-03-08T07:03:00;101755.88;;;3.68;93.17
71974;BME280;59840;52.122;5.404;2024-03-08T07:05:28;101754.28;;;3.82;92.30
71974;BME280;59840;52.122;5.404;2024-03-08T07:07:57;101759.72;;;3.95;91.44
71974;BME280;59840;52.122;5.404;2024-03-08T07:10:24;101750.97;;;4.18;90.31
71974;BME280;59840;52.122;5.404;2024-03-08T07:12:52;101749.25;;;3.95;90.20
71974;BME280;59840;52.122;5.404;2024-03-08T07:15:22;101743.41;;;3.79;89.55
71974;BME280;59840;52.122;5.404;2024-03-08T07:17:50;101745.00;;;3.19;90.68
71974;BME280;59840;52.122;5.404;2024-03-08T07:20:19;101745.59;;;3.07;92.37
71974;BME280;59840;52.122;5.404;2024-03-08T07:22:46;101749.56;;;3.17;92.23
71974;BME280;59840;52.122;5.404;2024-03-08T07:25:19;101744.06;;;2.81;92.34
71974;BME280;59840;52.122;5.404;2024-03-08T07:27:51;101742.72;;;2.62;94.32
71974;BME280;59840;52.122;5.404;2024-03-08T07:30:23;101735.56;;;2.56;94.47
71974;BME280;59840;52.122;5.404;2024-03-08T07:33:10;101732.50;;;2.53;94.92
71974;BME280;59840;52.122;5.404;2024-03-08T07:35:40;101730.34;;;2.56;95.60
71974;BME280;59840;52.122;5.404;2024-03-08T07:38:08;101734.13;;;2.54;95.03
71974;BME280;59840;52.122;5.404;2024-03-08T07:40:40;101729.53;;;2.56;95.12
71974;BME280;59840;52.122;5.404;2024-03-08T07:43:10;101732.13;;;2.64;95.32
71974;BME280;59840;52.122;5.404;2024-03-08T07:45:38;101723.81;;;2.68;95.33
71974;BME280;59840;52.122;5.404;2024-03-08T07:48:05;101720.50;;;2.75;95.79
71974;BME280;59840;52.122;5.404;2024-03-08T07:50:37;101722.06;;;2.84;95.30
71974;BME280;59840;52.122;5.404;2024-03-08T07:53:07;101724.16;;;2.88;95.04
71974;BME280;59840;52.122;5.404;2024-03-08T07:55:34;101716.34;;;2.88;94.52
71974;BME280;59840;52.122;5.404;2024-03-08T07:58:02;101712.59;;;2.91;94.63
71974;BME280;59840;52.122;5.404;2024-03-08T08:00:32;101709.13;;;2.98;94.25
71974;BME280;59840;52.122;5.404;2024-03-08T08:02:59;101707.28;;;3.07;94.24
71974;BME280;59840;52.122;5.404;2024-03-08T08:05:26;101696.69;;;3.09;94.03
71974;BME280;59840;52.122;5.404;2024-03-08T08:07:53;101700.47;;;3.21;93.99
71974;BME280;59840;52.122;5.404;2024-03-08T08:10:20;101688.94;;;3.15;93.22
71974;BME280;59840;52.122;5.404;2024-03-08T08:12:52;101695.78;;;3.16;92.96
71974;BME280;59840;52.122;5.404;2024-03-08T08:15:19;101692.66;;;3.21;92.79
71974;BME280;59840;52.122;5.404;2024-03-08T08:17:46;101692.13;;;3.25;92.82
71974;BME280;59840;52.122;5.404;2024-03-08T08:20:14;101686.22;;;3.31;92.94
71974;BME280;59840;52.122;5.404;2024-03-08T08:22:42;101690.56;;;3.39;92.01
71974;BME280;59840;52.122;5.404;2024-03-08T08:25:12;101682.75;;;3.39;92.23
71974;BME280;59840;52.122;5.404;2024-03-08T08:27:40;101685.09;;;3.49;92.20
71974;BME280;59840;52.122;5.404;2024-03-08T08:30:07;101678.19;;;3.56;92.34
71974;BME280;59840;52.122;5.404;2024-03-08T08:32:35;101680.78;;;3.56;92.02
71974;BME280;59840;52.122;5.404;2024-03-08T08:35:11;101679.81;;;3.57;90.70
71974;BME280;59840;52.122;5.404;2024-03-08T08:37:39;101673.06;;;3.62;90.68
71974;BME280;59840;52.122;5.404;2024-03-08T08:40:06;101676.66;;;3.61;90.40
71974;BME280;59840;52.122;5.404;2024-03-08T08:42:38;101669.66;;;3.62;90.49
71974;BME280;59840;52.122;5.404;2024-03-08T08:45:05;101662.19;;;3.74;91.09
71974;BME280;59840;52.122;5.404;2024-03-08T08:47:46;101665.91;;;3.79;90.21
71974;BME280;59840;52.122;5.404;2024-03-08T08:50:13;101662.72;;;3.84;90.81
71974;BME280;59840;52.122;5.404;2024-03-08T08:52:40;101656.63;;;3.91;91.23
71974;BME280;59840;52.122;5.404;2024-03-08T08:55:07;101654.09;;;3.98;89.57
71974;BME280;59840;52.122;5.404;2024-03-08T08:57:34;101658.97;;;4.01;89.62
71974;BME280;59840;52.122;5.404;2024-03-08T09:00:03;101658.78;;;4.02;89.42
71974;BME280;59840;52.122;5.404;2024-03-08T09:02:34;101652.22;;;4.07;90.30
71974;BME280;59840;52.122;5.404;2024-03-08T09:05:01;101646.09;;;4.14;89.18
71974;BME280;59840;52.122;5.404;2024-03-08T09:07:28;101647.06;;;4.13;89.03
71974;BME280;59840;52.122;5.404;2024-03-08T09:09:55;101638.84;;;4.16;88.93
71974;BME280;59840;52.122;5.404;2024-03-08T09:12:24;101633.72;;;4.23;90.00
71974;BME280;59840;52.122;5.404;2024-03-08T09:14:51;101632.06;;;4.36;89.09
71974;BME280;59840;52.122;5.404;2024-03-08T09:17:18;101626.03;;;4.36;88.62
71974;BME280;59840;52.122;5.404;2024-03-08T09:19:47;101625.59;;;4.32;87.60
71974;BME280;59840;52.122;5.404;2024-03-08T09:22:16;101614.97;;;4.34;87.85
71974;BME280;59840;52.122;5.404;2024-03-08T09:24:44;101621.34;;;4.46;88.44
71974;BME280;59840;52.122;5.404;2024-03-08T09:27:12;101616.56;;;4.50;87.52
71974;BME280;59840;52.122;5.404;2024-03-08T09:29:40;101613.81;;;4.58;87.58
71974;BME280;59840;52.122;5.404;2024-03-08T09:32:07;101595.75;;;4.63;87.59
71974;BME280;59840;52.122;5.404;2024-03-08T09:34:33;101609.16;;;4.75;88.15
71974;BME280;59840;52.122;5.404;2024-03-08T09:37:04;101597.69;;;4.76;87.30
71974;BME280;59840;52.122;5.404;2024-03-08T09:39:31;101597.97;;;4.81;86.61
71974;BME280;59840;52.122;5.404;2024-03-08T09:42:01;101590.31;;;4.86;86.24
71974;BME280;59840;52.122;5.404;2024-03-08T09:44:28;101582.53;;;4.92;86.77
71974;BME280;59840;52.122;5.404;2024-03-08T09:47:00;101576.44;;;5.07;87.01
71974;BME280;59840;52.122;5.404;2024-03-08T09:49:29;101571.31;;;5.20;86.79
71974;BME280;59840;52.122;5.404;2024-03-08T09:51:55;101566.09;;;5.26;86.18
71974;BME280;59840;52.122;5.404;2024-03-08T09:54:23;101563.38;;;5.41;86.63
71974;BME280;59840;52.122;5.404;2024-03-08T09:56:51;101573.44;;;5.37;85.34
71974;BME280;59840;52.122;5.404;2024-03-08T09:59:19;101567.81;;;5.41;85.86
71974;BME280;59840;52.122;5.404;2024-03-08T10:01:54;101553.97;;;5.47;85.68
71974;BME280;59840;52.122;5.404;2024-03-08T10:04:25;101550.78;;;5.58;84.68
71974;BME280;59840;52.122;5.404;2024-03-08T10:06:55;101552.63;;;5.64;84.37
71974;BME280;59840;52.122;5.404;2024-03-08T10:09:23;101539.03;;;5.82;83.83
71974;BME280;59840;52.122;5.404;2024-03-08T10:11:55;101543.50;;;5.88;82.94
71974;BME280;59840;52.122;5.404;2024-03-08T10:14:22;101533.63;;;5.90;83.09
71974;BME280;59840;52.122;5.404;2024-03-08T10:16:49;101533.06;;;6.01;82.77
71974;BME280;59840;52.122;5.404;2024-03-08T10:19:16;101522.63;;;6.08;82.85
71974;BME280;59840;52.122;5.404;2024-03-08T10:21:50;101524.22;;;6.09;82.33
71974;BME280;59840;52.122;5.404;2024-03-08T10:24:18;101503.31;;;6.22;81.71
71974;BME280;59840;52.122;5.404;2024-03-08T10:26:45;101510.97;;;6.30;81.96
71974;BME280;59840;52.122;5.404;2024-03-08T10:29:12;101496.03;;;6.30;81.04
71974;BME280;59840;52.122;5.404;2024-03-08T10:31:45;101501.50;;;6.42;81.42
71974;BME280;59840;52.122;5.404;2024-03-08T10:34:12;101496.06;;;6.44;81.79
71974;BME280;59840;52.122;5.404;2024-03-08T10:36:40;101497.28;;;6.67;81.77
71974;BME280;59840;52.122;5.404;2024-03-08T10:41:51;101487.19;;;6.78;78.28
71974;BME280;59840;52.122;5.404;2024-03-08T10:50:17;101472.22;;;6.98;78.91
71974;BME280;59840;52.122;5.404;2024-03-08T10:52:51;101467.38;;;7.15;77.21
71974;BME280;59840;52.122;5.404;2024-03-08T10:55:18;101460.69;;;7.19;77.11
71974;BME280;59840;52.122;5.404;2024-03-08T10:57:47;101461.50;;;7.19;76.27
71974;BME280;59840;52.122;5.404;2024-03-08T11:00:14;101457.59;;;7.28;75.77
71974;BME280;59840;52.122;5.404;2024-03-08T11:02:45;101444.06;;;7.31;76.25
71974;BME280;59840;52.122;5.404;2024-03-08T11:05:31;101436.97;;;7.38;76.24
71974;BME280;59840;52.122;5.404;2024-03-08T11:08:02;101431.72;;;7.45;76.92
71974;BME280;59840;52.122;5.404;2024-03-08T11:10:30;101419.81;;;7.43;76.56
71974;BME280;59840;52.122;5.404;2024-03-08T11:12:57;101421.63;;;7.42;74.57
71974;BME280;59840;52.122;5.404;2024-03-08T11:15:24;101417.59;;;7.39;75.09
71974;BME280;59840;52.122;5.404;2024-03-08T11:17:51;101423.66;;;7.40;73.93
71974;BME280;59840;52.122;5.404;2024-03-08T11:20:19;101400.22;;;7.45;74.86
71974;BME280;59840;52.122;5.404;2024-03-08T11:22:55;101405.25;;;7.47;74.91
71974;BME280;59840;52.122;5.404;2024-03-08T11:25:37;101388.31;;;7.43;74.81
71974;BME280;59840;52.122;5.404;2024-03-08T11:28:24;101384.41;;;7.52;74.18
71974;BME280;59840;52.122;5.404;2024-03-08T11:33:31;101377.00;;;7.73;74.90
71974;BME280;59840;52.122;5.404;2024-03-08T11:36:21;101363.19;;;7.85;74.82
71974;BME280;59840;52.122;5.404;2024-03-08T11:38:49;101362.34;;;7.91;73.01
71974;BME280;59840;52.122;5.404;2024-03-08T11:41:26;101355.38;;;8.03;73.69
71974;BME280;59840;52.122;5.404;2024-03-08T11:44:04;101345.56;;;8.17;71.81
71974;BME280;59840;52.122;5.404;2024-03-08T11:46:35;101341.81;;;8.31;72.43
71974;BME280;59840;52.122;5.404;2024-03-08T11:49:02;101344.91;;;8.46;69.46
71974;BME280;59840;52.122;5.404;2024-03-08T11:51:30;101333.53;;;8.52;68.79
71974;BME280;59840;52.122;5.404;2024-03-08T11:53:56;101337.75;;;8.53;68.64
71974;BME280;59840;52.122;5.404;2024-03-08T11:56:23;101327.69;;;8.50;68.60
71974;BME280;59840;52.122;5.404;2024-03-08T11:58:54;101320.69;;;8.62;66.71
71974;BME280;59840;52.122;5.404;2024-03-08T12:01:24;101307.56;;;8.74;66.87
71974;BME280;59840;52.122;5.404;2024-03-08T12:03:55;101316.84;;;8.95;67.64
71974;BME280;59840;52.122;5.404;2024-03-08T12:06:26;101306.00;;;9.03;67.37
71974;BME280;59840;52.122;5.404;2024-03-08T12:08:53;101310.69;;;9.01;65.90
71974;BME280;59840;52.122;5.404;2024-03-08T12:11:20;101299.47;;;8.94;65.91
71974;BME280;59840;52.122;5.404;2024-03-08T12:13:49;101298.47;;;9.06;66.39
71974;BME280;59840;52.122;5.404;2024-03-08T12:16:18;101288.13;;;9.23;64.87
71974;BME280;59840;52.122;5.404;2024-03-08T12:18:45;101284.56;;;9.18;64.58
71974;BME280;59840;52.122;5.404;2024-03-08T12:21:12;101300.00;;;9.14;63.20
71974;BME280;59840;52.122;5.404;2024-03-08T12:23:46;101300.44;;;9.11;64.09
71974;BME280;59840;52.122;5.404;2024-03-08T12:26:24;101284.84;;;9.10;62.30
71974;BME280;59840;52.122;5.404;2024-03-08T12:28:52;101280.84;;;9.07;64.12
71974;BME280;59840;52.122;5.404;2024-03-08T12:31:20;101277.59;;;9.23;64.41
71974;BME280;59840;52.122;5.404;2024-03-08T12:33:52;101270.28;;;9.25;62.54
71974;BME280;59840;52.122;5.404;2024-03-08T12:36:23;101267.72;;;9.19;63.01
71974;BME280;59840;52.122;5.404;2024-03-08T12:38:50;101274.38;;;9.21;64.04
71974;BME280;59840;52.122;5.404;2024-03-08T12:41:20;101247.72;;;9.29;63.07
71974;BME280;59840;52.122;5.404;2024-03-08T12:43:48;101242.59;;;9.34;62.81
71974;BME280;59840;52.122;5.404;2024-03-08T12:46:18;101243.03;;;9.31;63.63
71974;BME280;59840;52.122;5.404;2024-03-08T12:48:47;101237.06;;;9.36;62.98
71974;BME280;59840;52.122;5.404;2024-03-08T12:51:14;101247.16;;;9.27;62.68
71974;BME280;59840;52.122;5.404;2024-03-08T12:53:42;101247.16;;;9.27;62.33
71974;BME280;59840;52.122;5.404;2024-03-08T12:56:14;101234.22;;;9.26;62.97
71974;BME280;59840;52.122;5.404;2024-03-08T12:58:45;101242.91;;;9.26;62.51
71974;BME280;59840;52.122;5.404;2024-03-08T13:01:12;101237.31;;;9.34;61.44
71974;BME280;59840;52.122;5.404;2024-03-08T13:03:40;101227.13;;;9.38;62.52
71974;BME280;59840;52.122;5.404;2024-03-08T13:06:07;101227.38;;;9.48;62.62
71974;BME280;59840;52.122;5.404;2024-03-08T13:08:38;101218.56;;;9.54;60.92
71974;BME280;59840;52.122;5.404;2024-03-08T13:11:07;101220.06;;;9.62;60.47
71974;BME280;59840;52.122;5.404;2024-03-08T13:13:34;101214.69;;;9.57;62.10